Etusivu
METAR-TAF:

METAR-TAF

Lentoasemat :

Jim Hogg County Airport

Hebbronville, Texas, Yhdysvallat

Leveyspiiri: 27-20N, Pituuspiiri: 098-44W, korkeus merenpinnasta: 202 m

Tämänhetkinen sää

Tämä raportti tehtiin 20 minuuttia sitten, kello 19.35 UTC
Tuuli 12 kn etelästä/kaakosta puuskistuen 17 kn:hen
Lämpötila 29°C
Kosteus 33%
Ilmanpaine 1015 hPa
Näkyvyys: 16.1 km
Hajanaisia pilviä 4000 ft:n korkeudessa

METAR: KHBV 251935Z AUTO 16012G17KT 10SM SCT040 29/11 A2996 RMK AO2 T02920111

Aika: 13:55 (19:55 UTC)


TAF: puuttuu

Säähavainnot ja -ennusteet yli 4000 lentoasemalta (METAR- ja TAF-raportit).

Käytössä olevat sääasemat on merkitty karttaan keltaisilla ja punaisilla pisteillä.

Aseta hiiri pisteen päälle nähdäksesi sääaseman nimen.

Klikkaa sitten nähdäksesi säähavainnot ja -ennusteet.

Kartan vaihtaminen: klikkaa mustalla rastilla varustettuja vihreitä pisteitä, niin voit zoomata sisään; viivalla varustettua vihreää pistettä, niin voit zoomata ulos tai vihreitä nuolia, niin pääset viereisille kartoille.


METAR-TAF: